createdAt,value
2023-06-04T00:00:45.015Z,243.22
2023-06-04T00:01:44.986Z,240.81
2023-06-04T00:02:44.128Z,239.33
2023-06-04T00:03:44.143Z,238.19
2023-06-04T00:04:44.077Z,230.45
2023-06-04T00:05:44.967Z,225.83
2023-06-04T00:06:43.984Z,223.33
2023-06-04T00:07:44.949Z,222.69
2023-06-04T00:08:44.999Z,224.52
2023-06-04T00:09:44.950Z,223.34
2023-06-04T00:10:44.938Z,222.91
2023-06-04T00:11:45.013Z,226.03
2023-06-04T00:12:44.930Z,228.61
2023-06-04T00:13:43.946Z,230.46
2023-06-04T00:14:44.949Z,232.03
2023-06-04T00:15:43.885Z,228.74
2023-06-04T00:16:44.955Z,226.13
2023-06-04T00:17:44.901Z,226.03
2023-06-04T00:18:44.901Z,223.64
2023-06-04T00:19:44.894Z,221.19
2023-06-04T00:20:43.861Z,219.66
2023-06-04T00:21:44.914Z,218.25
2023-06-04T00:22:43.868Z,217.53
2023-06-04T00:23:43.941Z,222.00
2023-06-04T00:24:44.840Z,222.46
2023-06-04T00:25:43.833Z,225.65
2023-06-04T00:26:44.820Z,228.46
2023-06-04T00:27:44.785Z,232.21
2023-06-04T00:28:43.809Z,233.87
2023-06-04T00:29:44.802Z,233.64
2023-06-04T00:30:43.777Z,228.54
2023-06-04T00:31:43.885Z,226.72
2023-06-04T00:32:44.825Z,223.61
2023-06-04T00:33:44.771Z,225.24
2023-06-04T00:34:44.859Z,228.55
2023-06-04T00:35:43.835Z,230.08
2023-06-04T00:36:44.860Z,228.34
2023-06-04T00:37:44.934Z,228.53
2023-06-04T00:38:44.959Z,228.51
2023-06-04T00:39:44.020Z,229.63
2023-06-04T00:40:45.058Z,232.94
2023-06-04T00:41:44.084Z,236.28
2023-06-04T00:42:45.151Z,239.78
2023-06-04T00:43:44.181Z,241.97
2023-06-04T00:44:45.217Z,242.01
2023-06-04T00:45:45.311Z,242.92
2023-06-04T00:46:44.313Z,236.74
2023-06-04T00:47:45.465Z,229.63
2023-06-04T00:48:44.410Z,225.84
2023-06-04T00:49:44.486Z,222.07
2023-06-04T00:50:45.518Z,220.64
2023-06-04T00:51:45.557Z,213.87
2023-06-04T00:52:44.620Z,210.75
2023-06-04T00:53:44.646Z,211.83
2023-06-04T00:54:44.723Z,211.64
2023-06-04T00:55:45.743Z,215.35
2023-06-04T00:56:45.814Z,215.19
2023-06-04T00:57:45.822Z,215.56
2023-06-04T00:58:45.876Z,219.39
2023-06-04T00:59:44.951Z,221.49
2023-06-04T01:00:44.987Z,224.70
2023-06-04T01:01:46.102Z,225.84
2023-06-04T01:02:46.129Z,224.71
2023-06-04T01:03:46.171Z,218.67
2023-06-04T01:04:45.193Z,217.59
2023-06-04T01:05:45.246Z,220.82
2023-06-04T01:06:45.289Z,216.54
2023-06-04T01:07:46.308Z,219.86
2023-06-04T01:08:45.289Z,223.18
2023-06-04T01:09:46.389Z,224.74
2023-06-04T01:10:46.392Z,225.87
2023-06-04T01:11:46.505Z,226.44
2023-06-04T01:12:45.440Z,228.62
2023-06-04T01:13:46.425Z,228.70
2023-06-04T01:14:45.487Z,229.48
2023-06-04T01:15:45.489Z,230.96
2023-06-04T01:16:46.515Z,230.70
2023-06-04T01:17:46.506Z,232.39
2023-06-04T01:18:45.494Z,231.96
2023-06-04T01:19:46.530Z,228.22
2023-06-04T01:20:46.536Z,228.72
2023-06-04T01:21:46.550Z,230.94
2023-06-04T01:22:46.579Z,221.82
2023-06-04T01:23:46.651Z,223.58
2023-06-04T01:24:45.662Z,225.51
2023-06-04T01:25:45.674Z,228.17
2023-06-04T01:26:46.717Z,229.43
2023-06-04T01:27:45.712Z,231.83
2023-06-04T01:28:46.782Z,232.94
2023-06-04T01:29:46.821Z,232.81
2023-06-04T01:30:45.857Z,232.37
2023-06-04T01:31:46.907Z,231.10
2023-06-04T01:32:46.029Z,228.49
2023-06-04T01:33:46.949Z,227.33
2023-06-04T01:34:46.980Z,224.13
2023-06-04T01:35:47.049Z,224.10
2023-06-04T01:36:47.058Z,225.60
2023-06-04T01:37:47.106Z,225.12
2023-06-04T01:38:47.127Z,228.92
2023-06-04T01:39:47.182Z,228.49
2023-06-04T01:40:46.190Z,227.97
2023-06-04T01:41:46.271Z,230.76
2023-06-04T01:42:46.301Z,230.89
2023-06-04T01:43:46.352Z,232.60
2023-06-04T01:44:47.369Z,234.46
2023-06-04T01:45:47.420Z,237.63
2023-06-04T01:46:47.463Z,233.44
2023-06-04T01:47:47.548Z,235.16
2023-06-04T01:48:47.499Z,235.08
2023-06-04T01:49:46.531Z,236.83
2023-06-04T01:50:47.519Z,237.61
2023-06-04T01:51:46.543Z,235.20
2023-06-04T01:52:47.608Z,236.82
2023-06-04T01:53:47.646Z,234.51
2023-06-04T01:54:47.737Z,228.01
2023-06-04T01:55:47.798Z,224.97
2023-06-04T01:56:47.832Z,218.56
2023-06-04T01:57:46.848Z,216.52
2023-06-04T01:58:46.902Z,213.25
2023-06-04T01:59:47.888Z,217.12
2023-06-04T02:00:47.921Z,220.44
2023-06-04T02:01:46.991Z,228.07
2023-06-04T02:02:47.963Z,228.25
2023-06-04T02:03:47.911Z,224.49
2023-06-04T02:04:47.923Z,224.64
2023-06-04T02:05:47.965Z,225.33
2023-06-04T02:06:48.001Z,227.90
2023-06-04T02:07:47.036Z,228.77
2023-06-04T02:08:48.043Z,231.01
2023-06-04T02:09:48.102Z,233.14
2023-06-04T02:10:48.155Z,235.21
2023-06-04T02:11:48.161Z,235.75
2023-06-04T02:12:47.190Z,235.57
2023-06-04T02:13:48.189Z,236.28
2023-06-04T02:14:47.205Z,237.42
2023-06-04T02:15:48.207Z,237.63
2023-06-04T02:16:47.347Z,235.53
2023-06-04T02:17:47.281Z,233.35
2023-06-04T02:18:47.287Z,232.12
2023-06-04T02:19:48.363Z,231.71
2023-06-04T02:20:48.355Z,232.23
2023-06-04T02:21:47.394Z,231.69
2023-06-04T02:22:47.436Z,231.03
2023-06-04T02:23:48.629Z,229.09
2023-06-04T02:24:48.531Z,229.83
2023-06-04T02:25:48.625Z,230.18
2023-06-04T02:26:48.588Z,230.61
2023-06-04T02:27:47.579Z,229.94
2023-06-04T02:28:47.615Z,225.27
2023-06-04T02:29:48.635Z,223.44
2023-06-04T02:30:48.681Z,222.75
2023-06-04T02:31:47.732Z,221.05
2023-06-04T02:32:50.258Z,222.21
2023-06-04T02:33:49.524Z,222.23
2023-06-04T02:34:48.730Z,221.91
2023-06-04T02:35:47.717Z,220.50
2023-06-04T02:36:48.698Z,217.63
2023-06-04T02:37:47.722Z,217.06
2023-06-04T02:38:48.717Z,215.73
2023-06-04T02:39:48.704Z,217.49
2023-06-04T02:40:47.690Z,219.06
2023-06-04T02:41:47.676Z,219.09
2023-06-04T02:42:47.701Z,220.42
2023-06-04T02:43:48.668Z,219.63
2023-06-04T02:44:48.659Z,222.40
2023-06-04T02:45:48.664Z,223.54
2023-06-04T02:46:48.639Z,219.82
2023-06-04T02:47:48.771Z,218.31
2023-06-04T02:48:48.642Z,216.36
2023-06-04T02:49:49.510Z,217.53
2023-06-04T02:50:48.636Z,221.64
2023-06-04T02:51:48.650Z,226.54
2023-06-04T02:52:48.715Z,226.61
2023-06-04T02:53:48.755Z,224.39
2023-06-04T02:54:48.823Z,222.20
2023-06-04T02:55:48.884Z,221.51
2023-06-04T02:56:47.930Z,223.84
2023-06-04T02:57:48.994Z,227.14
2023-06-04T02:58:49.025Z,230.88
2023-06-04T02:59:48.105Z,233.37
2023-06-04T03:00:48.141Z,232.62
2023-06-04T03:01:49.239Z,233.51
2023-06-04T03:02:49.362Z,232.10
2023-06-04T03:03:49.369Z,232.70
2023-06-04T03:04:49.328Z,230.26
2023-06-04T03:05:49.350Z,229.92
2023-06-04T03:06:49.371Z,230.42
2023-06-04T03:07:49.427Z,230.51
2023-06-04T03:08:49.397Z,228.05
2023-06-04T03:09:48.487Z,227.08
2023-06-04T03:10:50.011Z,226.86
2023-06-04T03:11:48.495Z,226.06
2023-06-04T03:12:48.512Z,225.41
2023-06-04T03:13:49.511Z,227.21
2023-06-04T03:14:49.592Z,227.83
2023-06-04T03:15:48.625Z,225.11
2023-06-04T03:16:48.630Z,224.64
2023-06-04T03:17:48.703Z,222.60
2023-06-04T03:18:49.659Z,220.23
2023-06-04T03:19:49.716Z,217.84
2023-06-04T03:20:48.741Z,216.59
2023-06-04T03:21:48.754Z,215.75
2023-06-04T03:22:49.784Z,213.04
2023-06-04T03:23:48.830Z,208.91
2023-06-04T03:24:49.850Z,203.12
2023-06-04T03:25:49.894Z,203.82
2023-06-04T03:26:49.942Z,203.73
2023-06-04T03:27:49.982Z,205.31
2023-06-04T03:28:50.026Z,208.18
2023-06-04T03:29:49.061Z,209.61
2023-06-04T03:30:50.132Z,212.00
2023-06-04T03:31:50.128Z,212.16
2023-06-04T03:32:50.216Z,213.34
2023-06-04T03:33:50.235Z,216.07
2023-06-04T03:34:49.262Z,215.22
2023-06-04T03:35:50.323Z,209.48
2023-06-04T03:36:49.378Z,211.45
2023-06-04T03:37:50.449Z,211.12
2023-06-04T03:38:50.491Z,210.64
2023-06-04T03:39:49.568Z,211.92
2023-06-04T03:40:50.621Z,212.89
2023-06-04T03:41:50.658Z,212.37
2023-06-04T03:42:49.701Z,212.37
2023-06-04T03:43:50.738Z,213.78
2023-06-04T03:44:49.790Z,215.76
2023-06-04T03:45:50.859Z,215.96
2023-06-04T03:46:50.027Z,219.56
2023-06-04T03:47:50.981Z,219.66
2023-06-04T03:48:50.967Z,220.32
2023-06-04T03:49:51.017Z,221.11
2023-06-04T03:50:51.075Z,223.26
2023-06-04T03:51:50.120Z,223.89
2023-06-04T03:52:50.152Z,226.30
2023-06-04T03:53:51.206Z,227.13
2023-06-04T03:54:51.247Z,225.88
2023-06-04T03:55:50.301Z,223.22
2023-06-04T03:56:51.332Z,221.93
2023-06-04T03:57:50.341Z,220.75
2023-06-04T03:58:51.386Z,220.09
2023-06-04T03:59:50.465Z,221.54
2023-06-04T04:00:50.518Z,224.14
2023-06-04T04:01:50.633Z,223.93
2023-06-04T04:02:51.636Z,225.67
2023-06-04T04:03:50.747Z,225.29
2023-06-04T04:04:51.648Z,225.49
2023-06-04T04:05:51.674Z,224.92
2023-06-04T04:06:51.704Z,225.94
2023-06-04T04:07:51.757Z,228.01
2023-06-04T04:08:51.813Z,231.10
2023-06-04T04:09:51.849Z,232.93
2023-06-04T04:10:50.905Z,226.64
2023-06-04T04:11:50.942Z,225.21
2023-06-04T04:12:53.583Z,223.66
2023-06-04T04:13:51.172Z,223.40
2023-06-04T04:14:51.201Z,222.83
2023-06-04T04:15:52.219Z,222.53
2023-06-04T04:16:52.282Z,220.91
2023-06-04T04:17:51.343Z,219.34
2023-06-04T04:18:51.292Z,218.87
2023-06-04T04:19:52.342Z,218.21
2023-06-04T04:20:51.331Z,219.07
2023-06-04T04:21:51.317Z,221.93
2023-06-04T04:22:51.792Z,224.41
2023-06-04T04:23:52.430Z,224.00
2023-06-04T04:24:51.417Z,222.69
2023-06-04T04:25:52.477Z,218.63
2023-06-04T04:26:52.507Z,217.24
2023-06-04T04:27:51.609Z,218.62
2023-06-04T04:28:51.597Z,217.96
2023-06-04T04:29:52.637Z,220.18
2023-06-04T04:30:52.711Z,220.77
2023-06-04T04:31:52.677Z,222.42
2023-06-04T04:32:52.777Z,224.09
2023-06-04T04:33:52.753Z,223.30
2023-06-04T04:34:52.814Z,224.97
2023-06-04T04:35:52.052Z,227.63
2023-06-04T04:36:51.837Z,227.58
2023-06-04T04:37:52.870Z,225.95
2023-06-04T04:38:52.941Z,227.09
2023-06-04T04:39:51.956Z,227.40
2023-06-04T04:40:51.960Z,225.59
2023-06-04T04:41:51.972Z,222.95
2023-06-04T04:42:52.988Z,222.66
2023-06-04T04:43:51.985Z,223.48
2023-06-04T04:44:53.092Z,225.33
2023-06-04T04:45:52.094Z,224.59
2023-06-04T04:46:53.225Z,226.45
2023-06-04T04:47:52.260Z,226.83
2023-06-04T04:48:52.238Z,228.02
2023-06-04T04:49:53.277Z,226.45
2023-06-04T04:50:53.300Z,228.56
2023-06-04T04:51:53.331Z,229.12
2023-06-04T04:52:53.377Z,228.88
2023-06-04T04:53:53.366Z,228.21
2023-06-04T04:54:53.372Z,225.85
2023-06-04T04:55:53.409Z,226.22
2023-06-04T04:57:05.017Z,227.55
2023-06-04T04:57:53.393Z,217.87
2023-06-04T04:58:53.414Z,206.97
2023-06-04T04:59:52.371Z,203.37
2023-06-04T05:00:54.064Z,201.00
2023-06-04T05:01:52.433Z,198.82
2023-06-04T05:02:53.391Z,201.94
2023-06-04T05:03:53.415Z,209.15
2023-06-04T05:04:53.338Z,204.32
2023-06-04T05:05:52.334Z,198.76
2023-06-04T05:06:52.341Z,200.00
2023-06-04T05:07:52.329Z,200.29
2023-06-04T05:08:53.311Z,199.94
2023-06-04T05:09:52.289Z,204.18
2023-06-04T05:10:53.384Z,206.55
2023-06-04T05:11:53.411Z,206.25
2023-06-04T05:12:52.421Z,203.97
2023-06-04T05:13:52.432Z,202.14
2023-06-04T05:14:52.455Z,205.43
2023-06-04T05:15:53.497Z,207.03
2023-06-04T05:16:53.606Z,216.20
2023-06-04T05:17:53.522Z,217.87
2023-06-04T05:18:53.532Z,216.38
2023-06-04T05:19:53.542Z,215.07
2023-06-04T05:20:52.607Z,214.29
2023-06-04T05:21:54.575Z,212.68
2023-06-04T05:22:53.645Z,209.39
2023-06-04T05:23:52.736Z,197.10
2023-06-04T05:24:53.715Z,193.88
2023-06-04T05:25:52.789Z,192.05
2023-06-04T05:26:53.822Z,186.67
2023-06-04T05:27:52.878Z,187.67
2023-06-04T05:28:54.411Z,192.04
2023-06-04T05:29:53.942Z,191.16
2023-06-04T05:30:53.975Z,190.14
2023-06-04T05:31:54.036Z,190.93
2023-06-04T05:32:54.084Z,193.04
2023-06-04T05:33:54.067Z,196.28
2023-06-04T05:34:54.107Z,193.21
2023-06-04T05:35:53.157Z,189.60
2023-06-04T05:36:53.168Z,189.12
2023-06-04T05:37:54.190Z,190.74
2023-06-04T05:38:54.216Z,193.27
2023-06-04T05:39:53.200Z,194.95
2023-06-04T05:40:54.243Z,193.14
2023-06-04T05:41:54.211Z,193.76
2023-06-04T05:42:53.216Z,186.68
2023-06-04T05:43:53.222Z,186.23
2023-06-04T05:44:53.231Z,186.83
2023-06-04T05:45:54.262Z,187.88
2023-06-04T05:46:54.241Z,188.66
2023-06-04T05:47:53.293Z,187.22
2023-06-04T05:48:54.267Z,191.56
2023-06-04T05:49:54.296Z,193.69
2023-06-04T05:50:54.285Z,185.41
2023-06-04T05:51:54.299Z,179.30
2023-06-04T05:52:54.285Z,179.38
2023-06-04T05:53:54.297Z,179.41
2023-06-04T05:54:54.326Z,175.83
2023-06-04T05:55:53.341Z,176.56
2023-06-04T05:56:54.381Z,176.29
2023-06-04T05:57:54.380Z,180.72
2023-06-04T05:58:53.409Z,178.89
2023-06-04T05:59:54.443Z,177.96
2023-06-04T06:00:53.453Z,176.88
2023-06-04T06:01:54.561Z,176.96
2023-06-04T06:02:54.613Z,173.29
2023-06-04T06:03:53.731Z,176.61
2023-06-04T06:04:54.599Z,177.94
2023-06-04T06:05:53.645Z,178.72
2023-06-04T06:06:53.637Z,179.81
2023-06-04T06:07:53.742Z,177.71
2023-06-04T06:08:54.715Z,177.23
2023-06-04T06:09:54.742Z,175.53
2023-06-04T06:10:54.740Z,175.95
2023-06-04T06:11:54.766Z,177.52
2023-06-04T06:12:53.826Z,178.16
2023-06-04T06:13:54.842Z,181.88
2023-06-04T06:14:54.881Z,178.17
2023-06-04T06:15:54.953Z,181.36
2023-06-04T06:16:55.040Z,178.26
2023-06-04T06:17:54.932Z,177.20
2023-06-04T06:18:54.960Z,174.36
2023-06-04T06:19:53.978Z,176.40
2023-06-04T06:20:54.005Z,177.83
2023-06-04T06:21:55.029Z,183.06
2023-06-04T06:22:55.080Z,184.92
2023-06-04T06:23:55.246Z,180.58
2023-06-04T06:24:55.155Z,175.65
2023-06-04T06:25:55.183Z,174.83
2023-06-04T06:26:55.232Z,171.40
2023-06-04T06:27:54.249Z,168.07
2023-06-04T06:28:54.300Z,169.86
2023-06-04T06:29:55.370Z,166.61
2023-06-04T06:30:55.440Z,164.34
2023-06-04T06:31:55.432Z,161.71
2023-06-04T06:32:56.341Z,161.80
2023-06-04T06:33:54.496Z,163.05
2023-06-04T06:34:54.511Z,171.39
2023-06-04T06:35:55.560Z,170.71
2023-06-04T06:36:54.592Z,177.55
2023-06-04T08:56:56.628Z,41.56
2023-06-04T09:05:56.599Z,37.67
2023-06-04T09:06:55.569Z,35.47
2023-06-04T09:07:55.584Z,30.23
2023-06-04T09:08:58.303Z,40.76
2023-06-04T09:10:11.434Z,33.96
2023-06-04T09:10:56.537Z,25.37
2023-06-04T09:11:56.555Z,22.17
2023-06-04T09:12:56.533Z,20.27
2023-06-04T09:13:56.534Z,24.31
2023-06-04T09:14:56.542Z,19.13
2023-06-04T09:15:55.564Z,30.83
2023-06-04T09:16:56.583Z,34.47
2023-06-04T09:17:56.541Z,31.62
2023-06-04T09:18:55.493Z,26.94
2023-06-04T09:19:56.484Z,25.00
2023-06-04T09:20:55.494Z,32.58
2023-06-04T09:21:56.474Z,30.64
2023-06-04T09:22:55.468Z,31.73
2023-06-04T09:23:56.553Z,43.17
2023-06-04T09:24:55.489Z,47.12
2023-06-04T09:25:55.455Z,43.14
2023-06-04T09:26:55.432Z,43.47
2023-06-04T09:27:56.438Z,44.65
2023-06-04T09:28:55.418Z,40.72
2023-06-04T09:29:55.414Z,31.10
2023-06-04T09:30:56.467Z,31.93
2023-06-04T09:31:56.468Z,34.53
2023-06-04T09:32:56.466Z,38.12
2023-06-04T09:33:56.395Z,29.62
2023-06-04T09:34:55.403Z,11.60
2023-06-04T09:35:56.399Z,0.00
2023-06-04T09:36:56.399Z,0.73
2023-06-04T09:37:55.418Z,9.30
2023-06-04T09:38:56.399Z,22.91
2023-06-04T09:39:55.396Z,31.16
2023-06-04T09:40:55.381Z,43.05
2023-06-04T09:41:56.369Z,41.72
2023-06-04T09:42:56.708Z,40.74
2023-06-04T09:43:55.329Z,24.85
2023-06-04T09:44:56.346Z,27.97
2023-06-04T09:45:56.350Z,34.11
2023-06-04T09:46:55.471Z,37.69
2023-06-04T09:47:56.416Z,25.65
2023-06-04T09:48:56.358Z,25.00
2023-06-04T09:49:56.400Z,25.99
2023-06-04T09:50:55.425Z,16.46
2023-06-04T09:51:56.448Z,14.88
2023-06-04T09:52:56.461Z,14.00
2023-06-04T09:53:56.482Z,21.63
2023-06-04T09:54:56.521Z,24.21
2023-06-04T09:55:56.534Z,24.65
2023-06-04T09:56:56.514Z,26.98
2023-06-04T09:57:55.550Z,18.85
2023-06-04T09:58:55.588Z,23.57
2023-06-04T09:59:55.600Z,27.17
2023-06-04T10:00:56.662Z,28.41
2023-06-04T10:01:56.688Z,29.23
2023-06-04T10:02:56.810Z,32.28
2023-06-04T10:03:56.881Z,26.41
2023-06-04T10:04:56.797Z,31.10
2023-06-04T10:05:56.803Z,26.34
2023-06-04T10:06:55.852Z,25.73
2023-06-04T10:07:55.890Z,28.64
2023-06-04T10:08:55.883Z,36.96
2023-06-04T10:09:56.918Z,35.19
2023-06-04T10:10:56.968Z,36.31
2023-06-04T10:11:55.995Z,30.07
2023-06-04T10:12:56.992Z,35.25
2023-06-04T10:13:56.041Z,34.31
2023-06-04T10:14:57.061Z,34.87
2023-06-04T10:15:57.134Z,42.33
2023-06-04T10:16:56.255Z,48.73
2023-06-04T10:17:57.221Z,35.61
2023-06-04T10:18:56.226Z,36.00
2023-06-04T10:19:57.261Z,36.22
2023-06-04T10:20:57.413Z,28.65
2023-06-04T10:21:57.296Z,28.92
2023-06-04T10:22:57.343Z,33.75
2023-06-04T10:23:57.386Z,31.30
2023-06-04T10:24:56.408Z,32.10
2023-06-04T10:25:56.440Z,33.71
2023-06-04T10:26:57.489Z,30.75
2023-06-04T10:27:57.506Z,36.47
2023-06-04T10:28:57.532Z,30.91
2023-06-04T10:29:56.586Z,32.35
2023-06-04T10:30:56.556Z,40.31
2023-06-04T10:31:56.727Z,35.92
2023-06-04T10:32:57.678Z,37.83
2023-06-04T10:33:56.652Z,31.92
2023-06-04T10:34:57.702Z,21.27
2023-06-04T10:35:56.759Z,20.32
2023-06-04T10:36:57.787Z,25.35
2023-06-04T10:37:56.814Z,36.24
2023-06-04T10:38:57.791Z,38.99
2023-06-04T10:39:57.865Z,47.75
2023-06-04T10:40:57.849Z,35.09
2023-06-04T10:41:57.884Z,28.39
2023-06-04T10:42:57.909Z,26.21
2023-06-04T10:43:57.985Z,30.85
2023-06-04T10:44:58.217Z,28.64
2023-06-04T10:45:58.086Z,30.17
2023-06-04T10:46:58.020Z,29.44
2023-06-04T10:47:58.058Z,33.26
2023-06-04T10:48:58.089Z,32.82
2023-06-04T10:49:57.121Z,34.67
2023-06-04T10:50:57.168Z,32.83
2023-06-04T10:51:58.186Z,39.14
2023-06-04T10:52:58.249Z,37.56
2023-06-04T10:53:58.270Z,34.03
2023-06-04T10:54:58.284Z,32.66
2023-06-04T10:55:57.331Z,31.14
2023-06-04T10:56:58.388Z,26.77
2023-06-04T10:57:58.378Z,27.22
2023-06-04T10:58:58.431Z,30.86
2023-06-04T10:59:58.548Z,35.52
2023-06-04T11:00:58.503Z,33.72
2023-06-04T11:01:58.627Z,28.41
2023-06-04T11:02:58.575Z,20.69
2023-06-04T11:03:57.601Z,26.17
2023-06-04T11:04:57.592Z,26.94
2023-06-04T11:05:57.617Z,28.68
2023-06-04T11:06:57.629Z,28.17
2023-06-04T11:07:58.645Z,25.57
2023-06-04T11:08:58.691Z,26.65
2023-06-04T11:09:57.719Z,23.08
2023-06-04T11:10:58.760Z,25.37
2023-06-04T11:11:58.789Z,32.27
2023-06-04T11:12:58.824Z,34.98
2023-06-04T11:13:58.836Z,37.93
2023-06-04T11:14:57.871Z,39.20
2023-06-04T11:15:58.915Z,40.78
2023-06-04T11:16:58.918Z,41.67
2023-06-04T11:17:58.963Z,43.76
2023-06-04T11:18:58.969Z,38.13
2023-06-04T11:19:59.008Z,40.21
2023-06-04T11:20:59.024Z,39.74
2023-06-04T11:21:59.053Z,21.29
2023-06-04T11:22:58.069Z,20.20
2023-06-04T11:23:59.095Z,16.26
2023-06-04T11:24:59.094Z,10.70
2023-06-04T11:25:58.149Z,13.93
2023-06-04T11:27:58.169Z,28.77
2023-06-04T11:28:58.192Z,35.34
2023-06-04T11:29:59.229Z,36.95
2023-06-04T11:30:59.307Z,28.92
2023-06-04T11:31:59.345Z,26.27
2023-06-04T11:32:59.346Z,30.64
2023-06-04T11:33:59.351Z,37.70
2023-06-04T11:34:58.375Z,29.84
2023-06-04T11:35:58.451Z,29.73
2023-06-04T11:36:59.475Z,20.76
2023-06-04T11:37:59.508Z,29.32
2023-06-04T11:38:59.532Z,27.96
2023-06-04T11:39:59.605Z,40.17
2023-06-04T11:40:58.576Z,32.73
2023-06-04T11:41:58.608Z,35.48
2023-06-04T11:42:58.662Z,35.86
2023-06-04T11:43:59.659Z,32.44
2023-06-04T11:44:58.698Z,40.02
2023-06-04T11:45:59.734Z,43.04
2023-06-04T11:46:59.753Z,42.07
2023-06-04T11:47:59.880Z,40.78
2023-06-04T11:48:59.973Z,42.77
2023-06-04T11:49:59.890Z,40.25
2023-06-04T11:50:59.872Z,34.19
2023-06-04T11:51:59.906Z,30.59
2023-06-04T11:52:58.958Z,33.34
2023-06-04T11:53:59.940Z,32.46
2023-06-04T11:54:59.978Z,36.16
2023-06-04T11:55:58.999Z,39.29
2023-06-04T11:57:00.029Z,41.13
2023-06-04T11:58:00.040Z,42.65
2023-06-04T11:59:00.142Z,40.48
2023-06-04T12:00:00.187Z,28.81
2023-06-04T12:01:00.169Z,28.39
2023-06-04T12:01:59.189Z,26.11
2023-06-04T12:03:00.339Z,27.58
2023-06-04T12:04:00.248Z,31.21
2023-06-04T12:05:00.293Z,37.14
2023-06-04T12:06:00.432Z,40.35
2023-06-04T12:07:00.362Z,46.64
2023-06-04T12:08:00.409Z,46.38
2023-06-04T12:09:00.455Z,49.16
2023-06-04T12:09:59.411Z,44.68
2023-06-04T12:10:59.427Z,44.41
2023-06-04T12:12:00.462Z,48.38
2023-06-04T12:13:00.510Z,50.84
2023-06-04T12:14:00.513Z,55.57
2023-06-04T12:15:00.632Z,56.42
2023-06-04T12:16:00.564Z,55.72
2023-06-04T12:16:59.661Z,50.01
2023-06-04T12:17:59.714Z,54.11
2023-06-04T12:19:00.629Z,56.86
2023-06-04T12:20:00.688Z,59.66
2023-06-04T12:21:00.738Z,59.42
2023-06-04T12:21:59.722Z,59.02
2023-06-04T12:23:00.739Z,60.36
2023-06-04T12:24:00.860Z,64.49
2023-06-04T12:25:00.839Z,59.05
2023-06-04T12:26:00.954Z,65.40
2023-06-04T12:27:00.897Z,72.16
2023-06-04T12:27:59.934Z,75.77
2023-06-04T12:29:00.975Z,74.39
2023-06-04T12:29:59.982Z,67.74
2023-06-04T12:31:00.049Z,66.53
2023-06-04T12:32:01.009Z,66.59
2023-06-04T12:33:01.133Z,70.41
2023-06-04T12:34:00.123Z,66.81
2023-06-04T12:35:01.127Z,66.62
2023-06-04T12:36:01.138Z,66.16
2023-06-04T12:37:01.169Z,57.65
2023-06-04T12:38:00.220Z,55.40
2023-06-04T12:39:01.283Z,57.25
2023-06-04T12:40:00.289Z,56.68
2023-06-04T12:41:01.303Z,61.63
2023-06-04T12:42:00.322Z,62.33
2023-06-04T12:43:00.329Z,59.88
2023-06-04T12:44:01.373Z,50.16
2023-06-04T12:45:01.382Z,55.09
2023-06-04T12:46:01.416Z,61.31
2023-06-04T12:47:00.901Z,60.06
2023-06-04T12:48:00.590Z,60.50
2023-06-04T12:49:00.537Z,64.92
2023-06-04T12:50:01.594Z,68.39
2023-06-04T12:51:00.634Z,65.69
2023-06-04T12:52:01.652Z,62.55
2023-06-04T12:53:01.652Z,65.71
2023-06-04T12:54:01.680Z,73.00
2023-06-04T12:55:01.705Z,67.34
2023-06-04T12:56:01.708Z,64.36
2023-06-04T12:57:01.743Z,60.03
2023-06-04T12:58:01.764Z,62.32
2023-06-04T12:59:01.797Z,60.95
2023-06-04T13:00:00.837Z,61.55
2023-06-04T13:01:01.851Z,59.29
2023-06-04T13:02:00.880Z,55.90
2023-06-04T13:03:00.973Z,57.99
2023-06-04T13:04:01.024Z,59.52
2023-06-04T13:05:00.932Z,58.14
2023-06-04T13:06:01.964Z,56.27
2023-06-04T13:07:01.981Z,52.10
2023-06-04T13:08:01.029Z,55.68
2023-06-04T13:09:02.062Z,66.13
2023-06-04T13:10:02.151Z,59.63
2023-06-04T13:11:02.091Z,51.65
2023-06-04T13:12:02.128Z,47.85
2023-06-04T13:13:02.161Z,49.35
2023-06-04T13:14:02.194Z,47.99
2023-06-04T13:15:02.252Z,51.44
2023-06-04T13:16:01.311Z,56.63
2023-06-04T13:17:07.335Z,55.27
2023-06-04T13:18:02.369Z,54.08
2023-06-04T13:19:02.279Z,56.15
2023-06-04T13:20:02.312Z,56.07
2023-06-04T13:21:02.263Z,57.02
2023-06-04T13:22:01.262Z,61.14
2023-06-04T13:23:02.800Z,65.96
2023-06-04T13:24:02.262Z,63.78
2023-06-04T13:25:02.291Z,65.51
2023-06-04T13:26:02.222Z,65.05
2023-06-04T13:27:01.237Z,65.94
2023-06-04T13:28:02.234Z,64.28
2023-06-04T13:29:02.198Z,68.13
2023-06-04T13:30:01.239Z,71.98
2023-06-04T13:31:02.211Z,71.86
2023-06-04T13:32:02.250Z,72.37
2023-06-04T13:33:02.226Z,75.64
2023-06-04T13:34:06.471Z,77.83
2023-06-04T13:35:02.216Z,73.89
2023-06-04T13:36:02.201Z,69.33
2023-06-04T13:37:01.205Z,72.80
2023-06-04T13:38:02.199Z,77.25
2023-06-04T13:39:02.550Z,82.25
2023-06-04T13:40:02.172Z,78.26
2023-06-04T13:41:02.158Z,78.89
2023-06-04T13:42:02.178Z,78.20
2023-06-04T13:43:01.151Z,77.21
2023-06-04T13:44:01.138Z,79.82
2023-06-04T13:45:01.128Z,84.74
2023-06-04T13:46:01.201Z,83.54
2023-06-04T13:47:01.108Z,87.65
2023-06-04T13:48:01.112Z,82.67
2023-06-04T13:49:02.125Z,79.59
2023-06-04T13:50:02.141Z,80.77
2023-06-04T13:51:02.153Z,84.47
2023-06-04T13:52:02.203Z,79.32
2023-06-04T13:53:02.260Z,76.39
2023-06-04T13:54:01.269Z,77.49
2023-06-04T13:55:01.310Z,77.62
2023-06-04T13:56:02.331Z,73.62
2023-06-04T13:57:01.379Z,71.50
2023-06-04T13:58:02.397Z,71.87
2023-06-04T13:59:01.502Z,72.11
2023-06-04T14:00:02.519Z,80.23
2023-06-04T14:01:02.567Z,83.75
2023-06-04T14:02:02.614Z,79.13
2023-06-04T14:03:02.694Z,73.08
2023-06-04T14:04:01.758Z,74.92
2023-06-04T14:05:02.592Z,69.01
2023-06-04T14:06:01.654Z,71.21
2023-06-04T14:07:02.699Z,80.74
2023-06-04T14:08:02.729Z,79.91
2023-06-04T14:09:04.279Z,73.56
2023-06-04T14:10:02.880Z,67.02
2023-06-04T14:11:02.907Z,63.45
2023-06-04T14:12:01.958Z,66.62
2023-06-04T14:13:02.970Z,68.17
2023-06-04T14:14:01.957Z,72.57
2023-06-04T14:15:03.022Z,67.26
2023-06-04T14:16:03.090Z,59.91
2023-06-04T14:17:03.072Z,61.29
2023-06-04T14:18:02.120Z,63.85
2023-06-04T14:19:02.113Z,64.93
2023-06-04T14:20:03.156Z,72.27
2023-06-04T14:21:03.205Z,69.87
2023-06-04T14:22:02.191Z,65.74
2023-06-04T14:23:02.214Z,70.78
2023-06-04T14:24:03.390Z,76.25
2023-06-04T14:25:02.285Z,84.18
2023-06-04T14:26:03.308Z,90.15
2023-06-04T14:27:02.349Z,90.47
2023-06-04T14:28:03.346Z,92.88
2023-06-04T14:29:03.386Z,87.05
2023-06-04T14:30:03.446Z,82.40
2023-06-04T14:31:02.513Z,75.72
2023-06-04T14:32:03.534Z,74.98
2023-06-04T14:33:03.562Z,70.73
2023-06-04T14:34:02.499Z,66.15
2023-06-04T14:35:03.536Z,66.26
2023-06-04T14:36:02.566Z,68.68
2023-06-04T14:37:03.612Z,75.04
2023-06-04T14:38:02.665Z,80.30
2023-06-04T14:39:02.691Z,86.07
2023-06-04T14:40:02.716Z,75.68
2023-06-04T14:41:02.778Z,66.57
2023-06-04T14:42:03.785Z,62.75
2023-06-04T14:43:03.788Z,60.41
2023-06-04T14:44:02.815Z,60.64
2023-06-04T14:45:03.805Z,55.03
2023-06-04T14:46:02.852Z,55.58
2023-06-04T14:47:02.858Z,51.98
2023-06-04T14:48:14.061Z,52.83
2023-06-04T14:49:03.894Z,52.91
2023-06-04T14:50:03.918Z,53.74
2023-06-04T14:51:02.887Z,53.10
2023-06-04T14:52:03.882Z,51.18
2023-06-04T14:53:02.860Z,58.50
2023-06-04T14:54:02.851Z,57.94
2023-06-04T14:55:03.876Z,59.94
2023-06-04T14:56:02.851Z,68.53
2023-06-04T14:57:03.852Z,70.87
2023-06-04T14:58:03.901Z,73.00
2023-06-04T14:59:03.842Z,75.50
2023-06-04T15:00:02.812Z,61.67
2023-06-04T15:01:03.792Z,62.58
2023-06-04T15:02:03.890Z,65.52
2023-06-04T15:03:02.913Z,68.80
2023-06-04T15:04:03.934Z,70.07
2023-06-04T15:05:02.779Z,74.91
2023-06-04T15:06:14.811Z,76.10
2023-06-04T15:07:03.774Z,76.11
2023-06-04T15:08:03.768Z,77.13